Time;durP1;ratioP1;P1;durP2;ratioP2;P2;SDS_P1;SDS_P2;PMS_P1;PMS_P2;Temp;Humidity;BMP_temperature;BMP_pressure;BME280_temperature;BME280_humidity;BME280_pressure;Samples;Min_cycle;Max_cycle;Signal;HPM_P1;HPM_P2
2024/02/28 00:01:51;;;;;;;22.33;14.70;;;;;;;;;;12479925;23;20034;-75
2024/02/28 00:06:55;;;;;;;22.48;14.35;;;;;;;;;;12481265;23;20463;-73
2024/02/28 00:11:59;;;;;;;20.25;13.48;;;;;;;;;;12486886;23;20023;-73
2024/02/28 00:17:02;;;;;;;24.10;15.15;;;;;;;;;;12486941;23;20033;-73
2024/02/28 00:22:06;;;;;;;19.95;13.07;;;;;;;;;;12486068;23;20475;-73
2024/02/28 00:27:11;;;;;;;21.73;14.77;;;;;;;;;;12483098;23;20340;-73
2024/02/28 00:32:14;;;;;;;22.00;14.50;;;;;;;;;;12486093;23;20033;-73
2024/02/28 00:37:18;;;;;;;20.55;13.77;;;;;;;;;;12482966;23;20039;-73
2024/02/28 00:42:23;;;;;;;20.77;14.43;;;;;;;;;;12484739;23;20094;-73
2024/02/28 00:47:26;;;;;;;22.65;14.82;;;;;;;;;;12485310;23;20046;-73
2024/02/28 00:52:31;;;;;;;26.92;16.80;;;;;;;;;;12484972;23;20065;-73
2024/02/28 00:57:36;;;;;;;30.98;20.60;;;;;;;;;;12482252;23;20110;-73
2024/02/28 01:02:40;;;;;;;26.23;16.73;;;;;;;;;;12483782;23;20426;-73
2024/02/28 01:07:43;;;;;;;27.42;17.00;;;;;;;;;;12482992;23;20106;-73
2024/02/28 01:12:48;;;;;;;25.90;16.52;;;;;;;;;;12480549;23;20030;-73
2024/02/28 01:17:51;;;;;;;26.42;16.88;;;;;;;;;;12481845;23;20093;-73
2024/02/28 01:22:54;;;;;;;27.85;17.25;;;;;;;;;;12502280;23;20106;-73
2024/02/28 01:27:59;;;;;;;33.67;21.00;;;;;;;;;;12483220;23;20051;-73
2024/02/28 01:33:02;;;;;;;27.42;17.27;;;;;;;;;;12500860;23;20020;-73
2024/02/28 01:38:06;;;;;;;25.65;15.82;;;;;;;;;;12500431;23;20094;-73
2024/02/28 01:43:12;;;;;;;26.63;17.20;;;;;;;;;;12500309;23;20469;-73
2024/02/28 01:48:15;;;;;;;45.33;27.88;;;;;;;;;;12499732;23;20023;-73
2024/02/28 01:53:18;;;;;;;29.27;18.40;;;;;;;;;;12499469;23;20019;-73
2024/02/28 01:58:24;;;;;;;27.00;16.83;;;;;;;;;;12481490;23;20050;-73
2024/02/28 02:03:28;;;;;;;27.98;16.55;;;;;;;;;;12498840;23;20031;-73
2024/02/28 02:08:31;;;;;;;23.90;14.52;;;;;;;;;;12498125;23;20353;-73
2024/02/28 02:13:36;;;;;;;26.58;15.35;;;;;;;;;;12497146;23;20588;-73
2024/02/28 02:18:39;;;;;;;23.83;14.70;;;;;;;;;;12497539;23;20027;-73
2024/02/28 02:23:44;;;;;;;23.88;14.50;;;;;;;;;;12497027;23;20028;-73
2024/02/28 02:28:47;;;;;;;31.50;18.60;;;;;;;;;;12481156;23;20015;-73
2024/02/28 02:33:50;;;;;;;34.83;20.08;;;;;;;;;;12496904;23;20483;-73
2024/02/28 02:38:55;;;;;;;32.15;19.17;;;;;;;;;;12478746;23;20031;-73
2024/02/28 02:43:58;;;;;;;34.22;20.10;;;;;;;;;;12477698;23;20512;-73
2024/02/28 02:49:02;;;;;;;48.47;27.17;;;;;;;;;;12487017;23;20384;-73
2024/02/28 02:54:06;;;;;;;27.52;16.73;;;;;;;;;;12496696;23;20027;-73
2024/02/28 02:59:09;;;;;;;33.72;19.85;;;;;;;;;;12494520;23;20472;-73
2024/02/28 03:04:13;;;;;;;41.92;24.17;;;;;;;;;;12493799;23;20505;-73
2024/02/28 03:09:17;;;;;;;40.03;23.67;;;;;;;;;;12494597;23;20107;-73
2024/02/28 03:14:21;;;;;;;29.77;17.88;;;;;;;;;;12494329;23;20055;-73
2024/02/28 03:19:25;;;;;;;32.65;18.17;;;;;;;;;;12493999;23;20043;-74
2024/02/28 03:24:29;;;;;;;30.10;18.08;;;;;;;;;;12492949;23;20087;-73
2024/02/28 03:29:33;;;;;;;26.75;16.15;;;;;;;;;;12492746;23;20058;-73
2024/02/28 03:34:36;;;;;;;27.73;16.85;;;;;;;;;;12492895;23;20638;-73
2024/02/28 03:39:40;;;;;;;32.22;18.58;;;;;;;;;;12493504;23;20031;-73
2024/02/28 03:44:44;;;;;;;33.38;18.95;;;;;;;;;;12496338;23;20110;-73
2024/02/28 03:49:47;;;;;;;43.85;24.90;;;;;;;;;;12484308;23;20657;-73
2024/02/28 03:54:52;;;;;;;30.48;18.15;;;;;;;;;;12495034;23;20066;-73
2024/02/28 03:59:55;;;;;;;27.08;16.30;;;;;;;;;;12494960;23;20110;-73
2024/02/28 04:04:58;;;;;;;25.80;15.05;;;;;;;;;;12483602;23;20106;-73
2024/02/28 04:10:05;;;;;;;46.72;25.20;;;;;;;;;;12483120;23;20110;-73
2024/02/28 04:15:08;;;;;;;;;;;;;;;;;;12482571;23;20482;-73
2024/02/28 04:20:13;;;;;;;28.25;16.45;;;;;;;;;;12483570;23;20491;-73
2024/02/28 04:25:18;;;;;;;45.45;27.38;;;;;;;;;;12478694;23;20035;-73
2024/02/28 04:30:21;;;;;;;37.33;20.67;;;;;;;;;;12477513;23;20435;-73
2024/02/28 04:35:25;;;;;;;35.63;21.02;;;;;;;;;;12490405;23;20382;-73
2024/02/28 04:40:29;;;;;;;37.13;20.70;;;;;;;;;;12488911;23;20027;-73
2024/02/28 04:45:33;;;;;;;25.45;14.98;;;;;;;;;;12489857;23;20036;-73
2024/02/28 04:50:36;;;;;;;25.45;14.85;;;;;;;;;;12488268;23;20031;-73
2024/02/28 04:55:40;;;;;;;21.13;13.30;;;;;;;;;;12489351;23;20032;-73
2024/02/28 05:00:44;;;;;;;27.50;15.18;;;;;;;;;;12480539;23;20122;-73
2024/02/28 05:05:47;;;;;;;23.05;14.45;;;;;;;;;;12488530;23;20050;-73
2024/02/28 05:10:52;;;;;;;26.83;15.50;;;;;;;;;;12487987;23;20033;-73
2024/02/28 05:16:05;;;;;;;;;;;;;;;;;;;;;
2024/02/28 05:21:09;;;;;;;31.05;17.85;;;;;;;;;;12472357;23;20031;-75
2024/02/28 05:26:15;;;;;;;26.63;15.90;;;;;;;;;;12487208;23;20519;-75
2024/02/28 05:31:23;;;;;;;27.30;15.68;;;;;;;;;;12487223;23;20028;-75
2024/02/28 05:36:27;;;;;;;23.43;13.77;;;;;;;;;;12486253;23;20063;-75
2024/02/28 05:41:32;;;;;;;23.05;13.68;;;;;;;;;;12485149;23;20275;-75
2024/02/28 05:46:36;;;;;;;26.30;16.00;;;;;;;;;;12480176;23;20038;-75
2024/02/28 05:51:40;;;;;;;32.47;18.38;;;;;;;;;;12483931;23;20037;-75
2024/02/28 05:56:44;;;;;;;28.80;15.98;;;;;;;;;;12476423;23;20041;-75
2024/02/28 06:01:48;;;;;;;25.98;14.95;;;;;;;;;;12479406;23;20039;-75
2024/02/28 06:06:51;;;;;;;44.75;24.70;;;;;;;;;;12484557;23;20031;-75
2024/02/28 06:11:56;;;;;;;45.70;25.42;;;;;;;;;;12482475;23;20042;-74
2024/02/28 06:17:01;;;;;;;32.05;18.67;;;;;;;;;;12482454;23;20106;-75
2024/02/28 06:22:07;;;;;;;29.52;16.15;;;;;;;;;;12478089;23;20031;-75
2024/02/28 06:27:19;;;;;;;26.80;14.83;;;;;;;;;;12478201;23;20019;-74
2024/02/28 06:32:25;;;;;;;33.58;18.60;;;;;;;;;;12463934;23;20118;-75
2024/02/28 06:37:28;;;;;;;39.17;20.52;;;;;;;;;;12485879;23;20023;-75
2024/02/28 06:42:35;;;;;;;40.25;22.65;;;;;;;;;;12481411;23;20088;-75
2024/02/28 06:47:38;;;;;;;;;;;;;;;;;;12481612;23;20031;-75
2024/02/28 06:52:42;;;;;;;27.83;15.48;;;;;;;;;;12478272;23;19925;-75
2024/02/28 06:57:47;;;;;;;24.23;14.60;;;;;;;;;;12479277;23;20083;-75
2024/02/28 07:02:50;;;;;;;29.58;15.02;;;;;;;;;;12479381;23;20034;-75
2024/02/28 07:07:54;;;;;;;23.42;14.57;;;;;;;;;;12479497;23;20468;-75
2024/02/28 07:12:59;;;;;;;39.38;22.05;;;;;;;;;;12479294;23;20490;-75
2024/02/28 07:18:02;;;;;;;36.40;20.25;;;;;;;;;;12484842;23;20098;-75
2024/02/28 07:23:06;;;;;;;43.22;23.95;;;;;;;;;;12482811;23;20031;-74
2024/02/28 07:28:10;;;;;;;42.58;23.70;;;;;;;;;;12484018;23;20053;-75
2024/02/28 07:33:14;;;;;;;32.47;17.38;;;;;;;;;;12501018;23;20095;-75
2024/02/28 07:38:20;;;;;;;24.35;14.70;;;;;;;;;;12500927;23;20487;-74
2024/02/28 07:43:24;;;;;;;30.38;16.48;;;;;;;;;;12500101;23;20031;-75
2024/02/28 07:48:28;;;;;;;25.65;15.77;;;;;;;;;;12500357;23;20079;-75
2024/02/28 07:53:31;;;;;;;25.17;13.93;;;;;;;;;;12483673;23;20027;-75
2024/02/28 07:58:36;;;;;;;20.25;12.93;;;;;;;;;;12482797;23;20550;-75
2024/02/28 08:03:40;;;;;;;22.30;12.35;;;;;;;;;;12482768;23;20034;-75
2024/02/28 08:08:46;;;;;;;23.80;14.20;;;;;;;;;;12499382;23;20038;-74
2024/02/28 08:13:51;;;;;;;26.58;16.15;;;;;;;;;;12482848;23;20336;-74
2024/02/28 08:18:54;;;;;;;29.42;16.13;;;;;;;;;;12482160;23;20111;-75
2024/02/28 08:23:58;;;;;;;29.98;16.95;;;;;;;;;;12497142;23;20107;-75
2024/02/28 08:29:03;;;;;;;30.98;16.40;;;;;;;;;;12497465;23;20027;-75
2024/02/28 08:34:06;;;;;;;26.10;14.55;;;;;;;;;;12481992;23;20015;-75
2024/02/28 08:39:11;;;;;;;28.10;15.60;;;;;;;;;;12496101;23;20122;-75
2024/02/28 08:44:16;;;;;;;41.15;22.75;;;;;;;;;;12481934;23;20031;-74
2024/02/28 08:49:19;;;;;;;35.53;20.20;;;;;;;;;;12482113;23;20735;-75
2024/02/28 08:54:22;;;;;;;28.23;17.02;;;;;;;;;;12478551;23;20027;-75
2024/02/28 08:59:27;;;;;;;45.92;25.88;;;;;;;;;;12481697;23;20471;-75
2024/02/28 09:04:30;;;;;;;36.70;21.60;;;;;;;;;;12494902;23;20027;-75
2024/02/28 09:09:37;;;;;;;30.33;17.65;;;;;;;;;;12481101;23;20468;-75
2024/02/28 09:14:44;;;;;;;23.33;14.73;;;;;;;;;;12493934;23;20515;-75
2024/02/28 09:19:47;;;;;;;22.70;13.18;;;;;;;;;;12492616;23;20027;-75
2024/02/28 09:24:51;;;;;;;22.05;14.27;;;;;;;;;;12492876;23;20023;-74
2024/02/28 09:29:55;;;;;;;48.33;26.92;;;;;;;;;;12492210;23;20062;-75
2024/02/28 09:34:59;;;;;;;40.15;22.02;;;;;;;;;;12479956;23;20186;-75
2024/02/28 09:40:02;;;;;;;29.95;17.83;;;;;;;;;;12480542;23;20553;-75
2024/02/28 09:45:11;;;;;;;24.67;15.02;;;;;;;;;;12491724;23;20590;-74
2024/02/28 09:50:15;;;;;;;31.05;18.23;;;;;;;;;;12490310;23;20059;-75
2024/02/28 09:55:19;;;;;;;26.48;15.73;;;;;;;;;;12490341;23;20027;-75
2024/02/28 10:00:24;;;;;;;29.58;17.92;;;;;;;;;;12490129;23;20027;-75
2024/02/28 10:05:28;;;;;;;26.40;16.15;;;;;;;;;;12477180;23;20016;-74
2024/02/28 10:10:32;;;;;;;23.40;14.43;;;;;;;;;;12483064;23;20570;-75
2024/02/28 10:15:36;;;;;;;31.00;19.58;;;;;;;;;;12481806;23;20031;-75
2024/02/28 10:20:40;;;;;;;26.73;16.23;;;;;;;;;;12488810;23;20027;-75
2024/02/28 10:25:44;;;;;;;29.48;18.92;;;;;;;;;;12479266;23;20072;-74
2024/02/28 10:30:54;;;;;;;34.00;20.35;;;;;;;;;;12487566;23;20031;-75
2024/02/28 10:35:57;;;;;;;33.92;20.33;;;;;;;;;;12487373;23;20027;-75
2024/02/28 10:41:01;;;;;;;27.52;16.30;;;;;;;;;;12478323;23;20060;-74
2024/02/28 10:46:09;;;;;;;21.95;14.27;;;;;;;;;;12479880;23;20023;-75
2024/02/28 10:51:24;;;;;;;22.67;14.32;;;;;;;;;;12484799;23;20114;-74
2024/02/28 10:56:30;;;;;;;26.98;16.33;;;;;;;;;;12484711;23;20356;-74
2024/02/28 11:01:37;;;;;;;27.97;16.13;;;;;;;;;;12483677;23;20043;-74
2024/02/28 11:06:50;;;;;;;25.38;15.57;;;;;;;;;;12478583;23;20720;-75
2024/02/28 11:11:55;;;;;;;21.75;13.70;;;;;;;;;;12477809;23;20027;-74
2024/02/28 11:17:03;;;;;;;31.08;19.48;;;;;;;;;;12483819;23;20031;-74
2024/02/28 11:22:07;;;;;;;28.95;17.38;;;;;;;;;;12419417;23;20111;-74
2024/02/28 11:27:14;;;;;;;22.02;14.20;;;;;;;;;;12419245;23;20035;-74
2024/02/28 11:32:19;;;;;;;28.70;17.33;;;;;;;;;;12420107;23;20535;-74
2024/02/28 11:37:23;;;;;;;27.48;16.42;;;;;;;;;;12421996;23;20032;-74
2024/02/28 11:42:26;;;;;;;22.63;13.95;;;;;;;;;;12420717;23;20031;-74
2024/02/28 11:47:31;;;;;;;17.70;11.98;;;;;;;;;;12419064;23;20020;-74
2024/02/28 11:52:35;;;;;;;18.08;11.80;;;;;;;;;;12420982;23;20034;-74
2024/02/28 11:57:39;;;;;;;17.63;10.68;;;;;;;;;;12422857;23;20465;-74
2024/02/28 12:02:43;;;;;;;16.13;10.13;;;;;;;;;;12426054;23;20528;-74
2024/02/28 12:07:47;;;;;;;22.25;13.70;;;;;;;;;;12425241;23;20087;-74
2024/02/28 12:12:51;;;;;;;21.02;13.20;;;;;;;;;;12442826;23;20020;-74
2024/02/28 12:17:57;;;;;;;18.27;11.80;;;;;;;;;;12442761;23;20020;-74
2024/02/28 12:23:01;;;;;;;16.92;11.00;;;;;;;;;;12423892;23;20042;-74
2024/02/28 12:28:06;;;;;;;17.45;11.10;;;;;;;;;;12423462;23;20047;-74
2024/02/28 12:33:12;;;;;;;13.93;9.30;;;;;;;;;;12442187;23;20024;-74
2024/02/28 12:38:15;;;;;;;18.13;11.13;;;;;;;;;;12421680;23;20058;-74
2024/02/28 12:43:19;;;;;;;21.23;13.55;;;;;;;;;;12421659;23;20032;-74
2024/02/28 12:48:24;;;;;;;17.92;11.82;;;;;;;;;;12423116;23;20031;-74
2024/02/28 12:53:27;;;;;;;18.38;11.38;;;;;;;;;;12440664;23;20027;-74
2024/02/28 12:58:30;;;;;;;18.48;11.48;;;;;;;;;;12445552;23;20028;-74
2024/02/28 13:03:35;;;;;;;16.75;10.73;;;;;;;;;;12440202;23;20057;-74
2024/02/28 13:08:38;;;;;;;32.60;19.98;;;;;;;;;;12439489;23;20027;-74
2024/02/28 13:13:42;;;;;;;23.65;13.98;;;;;;;;;;12438220;23;20019;-74
2024/02/28 13:18:47;;;;;;;14.02;9.57;;;;;;;;;;12438879;23;20028;-74
2024/02/28 13:23:50;;;;;;;12.65;8.48;;;;;;;;;;12422575;23;20413;-74
2024/02/28 13:28:54;;;;;;;12.07;7.75;;;;;;;;;;12444929;23;20039;-74
2024/02/28 13:33:58;;;;;;;10.30;6.47;;;;;;;;;;12422723;23;20237;-75
2024/02/28 13:39:02;;;;;;;5.90;4.47;;;;;;;;;;12436474;23;20033;-75
2024/02/28 13:44:06;;;;;;;6.15;3.85;;;;;;;;;;12422737;23;20031;-74
2024/02/28 13:49:10;;;;;;;5.22;3.60;;;;;;;;;;12436053;23;20028;-74
2024/02/28 13:54:15;;;;;;;6.38;3.40;;;;;;;;;;12421900;23;20027;-74
2024/02/28 13:59:18;;;;;;;3.53;2.83;;;;;;;;;;12423658;23;20024;-74
2024/02/28 14:04:23;;;;;;;2.60;2.03;;;;;;;;;;12422772;23;20028;-75
2024/02/28 14:09:26;;;;;;;3.00;2.15;;;;;;;;;;12422234;23;20028;-74
2024/02/28 14:14:30;;;;;;;3.35;2.22;;;;;;;;;;12435195;23;20028;-74
2024/02/28 14:19:36;;;;;;;3.28;2.58;;;;;;;;;;12421251;23;20032;-74
2024/02/28 14:24:39;;;;;;;4.95;3.60;;;;;;;;;;12434074;23;20027;-74
2024/02/28 14:29:42;;;;;;;6.70;4.57;;;;;;;;;;12421204;23;20472;-74
2024/02/28 14:34:48;;;;;;;6.40;4.47;;;;;;;;;;12433793;23;20689;-74
2024/02/28 14:39:52;;;;;;;5.97;4.20;;;;;;;;;;12432187;23;20581;-74
2024/02/28 14:44:55;;;;;;;7.15;4.55;;;;;;;;;;12432717;23;20409;-74
2024/02/28 14:50:00;;;;;;;5.20;3.67;;;;;;;;;;12419830;23;20027;-74
2024/02/28 14:55:04;;;;;;;8.70;5.28;;;;;;;;;;12431245;23;20032;-74
2024/02/28 15:00:10;;;;;;;5.55;4.10;;;;;;;;;;12431551;23;20564;-74
2024/02/28 15:05:15;;;;;;;9.00;5.03;;;;;;;;;;12430785;23;20031;-74
2024/02/28 15:10:19;;;;;;;10.60;7.53;;;;;;;;;;12429829;23;20079;-75
2024/02/28 15:15:22;;;;;;;9.95;6.60;;;;;;;;;;12430319;23;20039;-75
2024/02/28 15:20:27;;;;;;;13.10;7.63;;;;;;;;;;12419322;23;20036;-75
2024/02/28 15:25:30;;;;;;;6.53;4.63;;;;;;;;;;12420157;23;20091;-75
2024/02/28 15:30:34;;;;;;;8.95;5.72;;;;;;;;;;12429477;23;20027;-74
2024/02/28 15:35:39;;;;;;;6.70;4.80;;;;;;;;;;12422430;23;20043;-75
2024/02/28 15:40:43;;;;;;;7.82;5.35;;;;;;;;;;12424066;23;20283;-75
2024/02/28 15:45:48;;;;;;;6.07;4.65;;;;;;;;;;12423068;23;20358;-75
2024/02/28 15:50:53;;;;;;;6.63;4.05;;;;;;;;;;12430719;23;20032;-75
2024/02/28 15:55:56;;;;;;;6.13;3.70;;;;;;;;;;12430939;23;20364;-74
2024/02/28 16:01:00;;;;;;;5.25;3.72;;;;;;;;;;12418177;23;20032;-75
2024/02/28 16:06:08;;;;;;;3.92;3.03;;;;;;;;;;12424674;23;20389;-74
2024/02/28 16:11:12;;;;;;;3.15;2.63;;;;;;;;;;12423104;23;20039;-75
2024/02/28 16:16:16;;;;;;;5.20;3.45;;;;;;;;;;12423668;23;20536;-75
2024/02/28 16:21:21;;;;;;;4.10;3.10;;;;;;;;;;12422012;23;20038;-74
2024/02/28 16:26:24;;;;;;;4.15;2.83;;;;;;;;;;12445435;23;20087;-74
2024/02/28 16:31:28;;;;;;;4.05;2.92;;;;;;;;;;12426082;23;20039;-74
2024/02/28 16:36:33;;;;;;;3.50;2.78;;;;;;;;;;12424698;23;20028;-74
2024/02/28 16:41:36;;;;;;;2.90;2.20;;;;;;;;;;12418917;23;20031;-74
2024/02/28 16:46:40;;;;;;;3.17;2.72;;;;;;;;;;12421002;23;20572;-74
2024/02/28 16:51:45;;;;;;;4.88;3.20;;;;;;;;;;12421593;23;20027;-74
2024/02/28 16:56:48;;;;;;;4.25;2.80;;;;;;;;;;12426893;23;20062;-74
2024/02/28 17:01:52;;;;;;;3.85;2.53;;;;;;;;;;12425102;23;20036;-74
2024/02/28 17:06:57;;;;;;;4.32;3.00;;;;;;;;;;12424700;23;20028;-74
2024/02/28 17:12:00;;;;;;;3.67;2.47;;;;;;;;;;12422334;23;20084;-75
2024/02/28 17:17:04;;;;;;;3.75;2.83;;;;;;;;;;12475854;23;20046;-73
2024/02/28 17:22:08;;;;;;;4.65;3.15;;;;;;;;;;12485298;23;20035;-72
2024/02/28 17:27:12;;;;;;;6.03;3.97;;;;;;;;;;12484427;23;20023;-72
2024/02/28 17:32:15;;;;;;;6.18;3.92;;;;;;;;;;12483849;23;20053;-72
2024/02/28 17:37:21;;;;;;;6.32;3.72;;;;;;;;;;12480430;23;20023;-72
2024/02/28 17:42:24;;;;;;;4.78;2.95;;;;;;;;;;12485622;23;20031;-72
2024/02/28 17:47:29;;;;;;;5.55;3.38;;;;;;;;;;12485117;23;20031;-72
2024/02/28 17:52:34;;;;;;;6.63;3.63;;;;;;;;;;12484757;23;20027;-72
2024/02/28 17:57:38;;;;;;;;;;;;;;;;;;12482418;23;20035;-72
2024/02/28 18:02:42;;;;;;;4.82;3.83;;;;;;;;;;12490160;23;19921;-72
2024/02/28 18:07:46;;;;;;;5.57;3.67;;;;;;;;;;12508360;23;20031;-72
2024/02/28 18:12:51;;;;;;;7.20;4.38;;;;;;;;;;12482545;23;20464;-72
2024/02/28 18:17:54;;;;;;;8.40;4.85;;;;;;;;;;12503471;23;20046;-73
2024/02/28 18:22:59;;;;;;;6.82;4.25;;;;;;;;;;12484477;23;20071;-73
2024/02/28 18:28:02;;;;;;;8.48;4.20;;;;;;;;;;12501463;23;20023;-73
2024/02/28 18:33:06;;;;;;;7.68;4.50;;;;;;;;;;12483382;23;20023;-73
2024/02/28 18:38:10;;;;;;;7.30;4.85;;;;;;;;;;12483487;23;20045;-73
2024/02/28 18:43:17;;;;;;;7.15;4.78;;;;;;;;;;12480796;23;20405;-72
2024/02/28 18:48:20;;;;;;;7.10;4.18;;;;;;;;;;12499828;23;20436;-72
2024/02/28 18:53:25;;;;;;;6.80;4.85;;;;;;;;;;12499059;23;20110;-72
2024/02/28 18:58:28;;;;;;;8.18;5.50;;;;;;;;;;12477189;23;20130;-72
2024/02/28 19:03:32;;;;;;;8.48;4.93;;;;;;;;;;12497484;23;20098;-72
2024/02/28 19:08:37;;;;;;;9.90;4.75;;;;;;;;;;12498970;23;20024;-72
2024/02/28 19:13:42;;;;;;;5.20;3.53;;;;;;;;;;12495300;23;20024;-72
2024/02/28 19:18:45;;;;;;;6.53;3.60;;;;;;;;;;12499293;23;20091;-72
2024/02/28 19:23:50;;;;;;;6.97;4.38;;;;;;;;;;12498804;23;20535;-72
2024/02/28 19:28:56;;;;;;;6.40;4.13;;;;;;;;;;12483485;23;20768;-72
2024/02/28 19:33:59;;;;;;;7.97;4.47;;;;;;;;;;12482967;23;20114;-73
2024/02/28 19:39:04;;;;;;;6.03;4.20;;;;;;;;;;12497707;23;20078;-72
2024/02/28 19:44:07;;;;;;;7.85;4.75;;;;;;;;;;12496515;23;20031;-72
2024/02/28 19:49:11;;;;;;;6.75;4.47;;;;;;;;;;12480760;23;20111;-72
2024/02/28 19:54:15;;;;;;;6.18;4.15;;;;;;;;;;12496194;23;20035;-72
2024/02/28 19:59:19;;;;;;;7.05;4.43;;;;;;;;;;12496242;23;20031;-75
2024/02/28 20:04:22;;;;;;;6.80;4.15;;;;;;;;;;12496419;23;20675;-75
2024/02/28 20:09:27;;;;;;;6.75;3.85;;;;;;;;;;12495686;23;20106;-75
2024/02/28 20:14:30;;;;;;;5.47;3.92;;;;;;;;;;12482774;23;20408;-75
2024/02/28 20:19:34;;;;;;;6.38;4.28;;;;;;;;;;12482299;23;20023;-74
2024/02/28 20:24:39;;;;;;;12.70;5.88;;;;;;;;;;12497341;23;20107;-75
2024/02/28 20:29:43;;;;;;;9.88;4.75;;;;;;;;;;12498651;23;20023;-75
2024/02/28 20:34:46;;;;;;;6.97;4.22;;;;;;;;;;12486220;23;20043;-75
2024/02/28 20:39:51;;;;;;;6.97;4.13;;;;;;;;;;12497023;23;20050;-75
2024/02/28 20:44:54;;;;;;;6.53;4.07;;;;;;;;;;12483021;23;20066;-75
2024/02/28 20:49:57;;;;;;;6.78;4.32;;;;;;;;;;12495302;23;20023;-75
2024/02/28 20:55:03;;;;;;;7.30;4.40;;;;;;;;;;12495641;23;20459;-75
2024/02/28 21:00:09;;;;;;;6.63;4.13;;;;;;;;;;12495375;23;20510;-75
2024/02/28 21:05:13;;;;;;;;;;;;;;;;;;12494493;23;20515;-75
2024/02/28 21:10:18;;;;;;;5.55;3.63;;;;;;;;;;12483095;23;19921;-75
2024/02/28 21:15:22;;;;;;;5.15;3.67;;;;;;;;;;12483068;23;20423;-75
2024/02/28 21:20:25;;;;;;;10.88;6.53;;;;;;;;;;12481120;23;20054;-75
2024/02/28 21:25:29;;;;;;;14.40;8.25;;;;;;;;;;12481504;23;20134;-73
2024/02/28 21:30:33;;;;;;;16.90;9.48;;;;;;;;;;12489910;23;20428;-74
2024/02/28 21:35:42;;;;;;;13.50;7.63;;;;;;;;;;12489036;23;20031;-74
2024/02/28 21:40:46;;;;;;;10.55;6.10;;;;;;;;;;12508056;23;20031;-74
2024/02/28 21:45:50;;;;;;;8.02;4.47;;;;;;;;;;12493700;23;20031;-74
2024/02/28 21:50:53;;;;;;;5.80;4.22;;;;;;;;;;12480286;23;20408;-74
2024/02/28 21:55:58;;;;;;;4.95;3.42;;;;;;;;;;12478041;23;20419;-74
2024/02/28 22:01:01;;;;;;;5.10;3.63;;;;;;;;;;12486940;23;20131;-74
2024/02/28 22:06:04;;;;;;;9.27;3.88;;;;;;;;;;12500404;23;20030;-74
2024/02/28 22:11:11;;;;;;;5.88;4.00;;;;;;;;;;12478163;23;20099;-74
2024/02/28 22:16:14;;;;;;;5.57;3.97;;;;;;;;;;12438214;23;1051708;-74
2024/02/28 22:21:18;;;;;;;5.55;3.88;;;;;;;;;;12486553;23;20106;-74
2024/02/28 22:26:22;;;;;;;5.30;3.75;;;;;;;;;;12486924;23;20059;-73
2024/02/28 22:31:26;;;;;;;5.88;4.13;;;;;;;;;;12486763;23;20106;-74
2024/02/28 22:36:30;;;;;;;7.78;4.78;;;;;;;;;;12481369;23;20701;-74
2024/02/28 22:41:35;;;;;;;9.07;5.90;;;;;;;;;;12485288;23;20034;-74
2024/02/28 22:46:38;;;;;;;7.43;4.82;;;;;;;;;;12479884;23;20061;-74
2024/02/28 22:51:41;;;;;;;9.23;5.68;;;;;;;;;;12478362;23;20534;-74
2024/02/28 22:56:46;;;;;;;6.50;4.30;;;;;;;;;;12485035;23;20079;-73
2024/02/28 23:01:49;;;;;;;6.75;4.60;;;;;;;;;;12485147;23;20058;-74
2024/02/28 23:06:54;;;;;;;5.63;3.38;;;;;;;;;;12481194;23;20527;-74
2024/02/28 23:11:59;;;;;;;5.72;3.65;;;;;;;;;;12483894;23;20019;-74
2024/02/28 23:17:02;;;;;;;6.63;4.25;;;;;;;;;;12483523;23;20527;-73
2024/02/28 23:22:07;;;;;;;5.47;3.60;;;;;;;;;;12483217;23;20106;-74
2024/02/28 23:27:13;;;;;;;7.20;4.30;;;;;;;;;;12482708;23;20051;-74
2024/02/28 23:32:17;;;;;;;6.18;3.45;;;;;;;;;;12482675;23;20114;-74
2024/02/28 23:37:20;;;;;;;5.50;3.47;;;;;;;;;;12482878;23;20028;-74
2024/02/28 23:42:25;;;;;;;5.15;3.17;;;;;;;;;;12480941;23;20054;-74
2024/02/28 23:47:28;;;;;;;5.65;3.47;;;;;;;;;;12479089;23;20027;-74
2024/02/28 23:52:31;;;;;;;7.28;4.07;;;;;;;;;;12482114;23;20023;-74
2024/02/28 23:57:36;;;;;;;7.35;4.80;;;;;;;;;;12483945;23;20106;-74
